Terminal Aerodrome Forecast
Issued by NWS

Current Version | Previous Version | Text Only | Print | Product List | Glossary On
Versions: 1 2 3 4 5 6 7 8 9 10 11 12 13 14 15 16 17 18 19
000
FTUS44 KBMX 191100 RRA
TAFANB
TAF
KANB 191143Z 1912/2012 00000KT 6SM BR BKN200
     FM191300 03005KT P6SM SCT035 OVC200
     FM192100 36005KT P6SM VCSH BKN035 OVC050
     FM200200 02005KT 4SM RA BKN025 OVC050=

USA.gov is the U.S. government's official web portal to all federal, state and local government web resources and services.